Terminal Aerodrome Forecast
Issued by NWS

Current Version | Previous Version | Text Only | Print | Product List | Glossary Off
Versions: 1 2 3 4 5 6 7 8 9 10 11 12 13 14 15 16 17 18 19 20

000
FTUS41 KRLX 010900 AAA
TAFCKB
TAF AMD
KCKB 010901Z 0109/0206 04006KT P6SM OVC009
     FM011600 32004KT P6SM BKN016
     FM011900 32005KT P6SM BKN035
     FM020200 VRB03KT P6SM SCT045
     FM020400 00000KT P6SM BKN250=

USA.gov is the U.S. government's official web portal to all federal, state and local government web resources and services.